sensor_id;sensor_type;location;lat;lon;timestamp;pressure;altitude;pressure_sealevel;temperature
63113;BMP280;49206;48.020;21.378;2022-10-16T00:00:43;101211.22;;;9.58
63113;BMP280;49206;48.020;21.378;2022-10-16T00:01:46;101218.19;;;9.62
63113;BMP280;49206;48.020;21.378;2022-10-16T00:02:48;101217.63;;;9.65
63113;BMP280;49206;48.020;21.378;2022-10-16T00:03:51;101227.19;;;9.61
63113;BMP280;49206;48.020;21.378;2022-10-16T00:04:53;101220.06;;;9.62
63113;BMP280;49206;48.020;21.378;2022-10-16T00:05:59;101227.09;;;9.66
63113;BMP280;49206;48.020;21.378;2022-10-16T00:07:03;101223.66;;;9.66
63113;BMP280;49206;48.020;21.378;2022-10-16T00:08:05;101222.88;;;9.65
63113;BMP280;49206;48.020;21.378;2022-10-16T00:09:08;101227.09;;;9.66
63113;BMP280;49206;48.020;21.378;2022-10-16T00:10:10;101234.69;;;9.68
63113;BMP280;49206;48.020;21.378;2022-10-16T00:11:18;101237.00;;;9.69
63113;BMP280;49206;48.020;21.378;2022-10-16T00:12:21;101242.28;;;9.69
63113;BMP280;49206;48.020;21.378;2022-10-16T00:13:24;101240.72;;;9.68
63113;BMP280;49206;48.020;21.378;2022-10-16T00:14:26;101241.69;;;9.72
63113;BMP280;49206;48.020;21.378;2022-10-16T00:15:28;101240.47;;;9.78
63113;BMP280;49206;48.020;21.378;2022-10-16T00:16:31;101241.44;;;9.82
63113;BMP280;49206;48.020;21.378;2022-10-16T00:17:34;101238.78;;;9.82
63113;BMP280;49206;48.020;21.378;2022-10-16T00:18:36;101235.06;;;9.83
63113;BMP280;49206;48.020;21.378;2022-10-16T00:19:39;101239.13;;;9.89
63113;BMP280;49206;48.020;21.378;2022-10-16T00:20:41;101241.28;;;9.87
63113;BMP280;49206;48.020;21.378;2022-10-16T00:21:43;101245.47;;;9.88
63113;BMP280;49206;48.020;21.378;2022-10-16T00:22:46;101239.63;;;9.91
63113;BMP280;49206;48.020;21.378;2022-10-16T00:23:55;101247.81;;;9.90
63113;BMP280;49206;48.020;21.378;2022-10-16T00:24:58;101250.31;;;9.95
63113;BMP280;49206;48.020;21.378;2022-10-16T00:26:03;101247.84;;;9.98
63113;BMP280;49206;48.020;21.378;2022-10-16T00:27:07;101238.66;;;9.96
63113;BMP280;49206;48.020;21.378;2022-10-16T00:28:09;101247.06;;;9.98
63113;BMP280;49206;48.020;21.378;2022-10-16T00:29:11;101246.59;;;9.96
63113;BMP280;49206;48.020;21.378;2022-10-16T00:30:14;101247.69;;;10.03
63113;BMP280;49206;48.020;21.378;2022-10-16T00:31:18;101247.69;;;10.03
63113;BMP280;49206;48.020;21.378;2022-10-16T00:32:21;101253.28;;;10.02
63113;BMP280;49206;48.020;21.378;2022-10-16T00:33:24;101257.66;;;10.06
63113;BMP280;49206;48.020;21.378;2022-10-16T00:34:26;101247.88;;;10.07
63113;BMP280;49206;48.020;21.378;2022-10-16T00:35:28;101251.75;;;10.09
63113;BMP280;49206;48.020;21.378;2022-10-16T00:36:31;101249.91;;;10.01
63113;BMP280;49206;48.020;21.378;2022-10-16T00:37:33;101248.63;;;9.99
63113;BMP280;49206;48.020;21.378;2022-10-16T00:38:36;101249.25;;;10.04
63113;BMP280;49206;48.020;21.378;2022-10-16T00:39:39;101245.56;;;10.05
63113;BMP280;49206;48.020;21.378;2022-10-16T00:40:42;101242.72;;;10.02
63113;BMP280;49206;48.020;21.378;2022-10-16T00:41:44;101240.56;;;10.04
63113;BMP280;49206;48.020;21.378;2022-10-16T00:42:47;101244.47;;;10.06
63113;BMP280;49206;48.020;21.378;2022-10-16T00:43:57;101246.28;;;9.97
63113;BMP280;49206;48.020;21.378;2022-10-16T00:45:01;101244.31;;;10.03
63113;BMP280;49206;48.020;21.378;2022-10-16T00:46:09;101241.81;;;10.06
63113;BMP280;49206;48.020;21.378;2022-10-16T00:47:18;101243.38;;;10.07
63113;BMP280;49206;48.020;21.378;2022-10-16T00:48:21;101237.94;;;10.04
63113;BMP280;49206;48.020;21.378;2022-10-16T00:49:24;101244.94;;;10.08
63113;BMP280;49206;48.020;21.378;2022-10-16T00:50:30;101245.44;;;10.10
63113;BMP280;49206;48.020;21.378;2022-10-16T00:51:45;101250.81;;;10.05
63113;BMP280;49206;48.020;21.378;2022-10-16T00:52:50;101247.09;;;10.06
63113;BMP280;49206;48.020;21.378;2022-10-16T00:53:54;101244.16;;;10.08
63113;BMP280;49206;48.020;21.378;2022-10-16T00:54:57;101251.88;;;10.04
63113;BMP280;49206;48.020;21.378;2022-10-16T00:56:00;101250.34;;;10.12
63113;BMP280;49206;48.020;21.378;2022-10-16T00:57:06;101250.34;;;10.12
63113;BMP280;49206;48.020;21.378;2022-10-16T00:58:09;101252.09;;;10.16
63113;BMP280;49206;48.020;21.378;2022-10-16T00:59:16;101246.19;;;10.19
63113;BMP280;49206;48.020;21.378;2022-10-16T01:00:23;101256.94;;;10.23
63113;BMP280;49206;48.020;21.378;2022-10-16T01:01:25;101256.00;;;10.19
63113;BMP280;49206;48.020;21.378;2022-10-16T01:02:27;101251.66;;;10.23
63113;BMP280;49206;48.020;21.378;2022-10-16T01:03:35;101250.25;;;10.25
63113;BMP280;49206;48.020;21.378;2022-10-16T01:04:45;101262.06;;;10.28
63113;BMP280;49206;48.020;21.378;2022-10-16T01:05:54;101255.25;;;10.27
63113;BMP280;49206;48.020;21.378;2022-10-16T01:07:27;101265.81;;;10.27
63113;BMP280;49206;48.020;21.378;2022-10-16T01:08:54;101259.72;;;10.26
63113;BMP280;49206;48.020;21.378;2022-10-16T01:10:29;101266.09;;;10.25
63113;BMP280;49206;48.020;21.378;2022-10-16T01:11:41;101268.44;;;10.27
63113;BMP280;49206;48.020;21.378;2022-10-16T01:13:05;101262.06;;;10.28
63113;BMP280;49206;48.020;21.378;2022-10-16T01:14:19;101265.94;;;10.30
63113;BMP280;49206;48.020;21.378;2022-10-16T01:15:29;101267.78;;;10.30
63113;BMP280;49206;48.020;21.378;2022-10-16T01:16:52;101264.38;;;10.29
63113;BMP280;49206;48.020;21.378;2022-10-16T01:18:08;101265.47;;;10.28
63113;BMP280;49206;48.020;21.378;2022-10-16T01:20:07;101265.81;;;10.27
63113;BMP280;49206;48.020;21.378;2022-10-16T01:21:08;101268.13;;;10.28
63113;BMP280;49206;48.020;21.378;2022-10-16T01:22:12;101266.75;;;10.31
63113;BMP280;49206;48.020;21.378;2022-10-16T01:23:28;101265.47;;;10.28
63113;BMP280;49206;48.020;21.378;2022-10-16T01:24:43;101269.53;;;10.34
63113;BMP280;49206;48.020;21.378;2022-10-16T01:27:27;101270.13;;;10.31
63113;BMP280;49206;48.020;21.378;2022-10-16T01:30:02;101280.91;;;10.35
63113;BMP280;49206;48.020;21.378;2022-10-16T01:31:09;101280.09;;;10.34
63113;BMP280;49206;48.020;21.378;2022-10-16T01:32:24;101279.78;;;10.36
63113;BMP280;49206;48.020;21.378;2022-10-16T01:33:34;101280.91;;;10.35
63113;BMP280;49206;48.020;21.378;2022-10-16T01:34:45;101273.75;;;10.35
63113;BMP280;49206;48.020;21.378;2022-10-16T01:35:54;101275.25;;;10.36
63113;BMP280;49206;48.020;21.378;2022-10-16T01:37:05;101279.78;;;10.36
63113;BMP280;49206;48.020;21.378;2022-10-16T01:38:17;101279.63;;;10.32
63113;BMP280;49206;48.020;21.378;2022-10-16T01:39:24;101269.53;;;10.34
63113;BMP280;49206;48.020;21.378;2022-10-16T01:40:30;101276.97;;;10.32
63113;BMP280;49206;48.020;21.378;2022-10-16T01:41:39;101276.69;;;10.34
63113;BMP280;49206;48.020;21.378;2022-10-16T01:42:46;101277.47;;;10.34
63113;BMP280;49206;48.020;21.378;2022-10-16T01:44:16;101277.59;;;10.38
63113;BMP280;49206;48.020;21.378;2022-10-16T01:45:20;101274.66;;;10.39
63113;BMP280;49206;48.020;21.378;2022-10-16T01:46:23;101282.59;;;10.39
63113;BMP280;49206;48.020;21.378;2022-10-16T01:47:27;101280.25;;;10.38
63113;BMP280;49206;48.020;21.378;2022-10-16T01:48:31;101276.84;;;10.37
63113;BMP280;49206;48.020;21.378;2022-10-16T01:49:36;101282.13;;;10.37
63113;BMP280;49206;48.020;21.378;2022-10-16T01:50:42;101279.47;;;10.37
63113;BMP280;49206;48.020;21.378;2022-10-16T01:51:49;101283.97;;;10.37
63113;BMP280;49206;48.020;21.378;2022-10-16T01:52:54;101289.59;;;10.35
63113;BMP280;49206;48.020;21.378;2022-10-16T01:53:59;101285.06;;;10.36
63113;BMP280;49206;48.020;21.378;2022-10-16T01:55:04;101286.94;;;10.35
63113;BMP280;49206;48.020;21.378;2022-10-16T01:56:12;101279.94;;;10.31
63113;BMP280;49206;48.020;21.378;2022-10-16T01:57:15;101278.03;;;10.23
63113;BMP280;49206;48.020;21.378;2022-10-16T01:58:21;101286.25;;;10.21
63113;BMP280;49206;48.020;21.378;2022-10-16T01:59:29;101286.44;;;10.25
63113;BMP280;49206;48.020;21.378;2022-10-16T02:00:33;101283.50;;;10.26
63113;BMP280;49206;48.020;21.378;2022-10-16T02:01:38;101293.91;;;10.31
63113;BMP280;49206;48.020;21.378;2022-10-16T02:02:44;101285.06;;;10.27
63113;BMP280;49206;48.020;21.378;2022-10-16T02:03:51;101293.28;;;10.26
63113;BMP280;49206;48.020;21.378;2022-10-16T02:04:58;101289.69;;;10.22
63113;BMP280;49206;48.020;21.378;2022-10-16T02:06:03;101292.34;;;10.22
63113;BMP280;49206;48.020;21.378;2022-10-16T02:07:06;101296.81;;;10.21
63113;BMP280;49206;48.020;21.378;2022-10-16T02:08:09;101296.69;;;10.18
63113;BMP280;49206;48.020;21.378;2022-10-16T02:09:11;101302.38;;;10.11
63113;BMP280;49206;48.020;21.378;2022-10-16T02:10:14;101300.66;;;10.07
63113;BMP280;49206;48.020;21.378;2022-10-16T02:11:16;101300.19;;;10.05
63113;BMP280;49206;48.020;21.378;2022-10-16T02:12:25;101304.22;;;10.02
63113;BMP280;49206;48.020;21.378;2022-10-16T02:14:47;101298.81;;;10.07
63113;BMP280;49206;48.020;21.378;2022-10-16T02:15:49;101309.34;;;10.07
63113;BMP280;49206;48.020;21.378;2022-10-16T02:16:55;101307.94;;;10.01
63113;BMP280;49206;48.020;21.378;2022-10-16T02:17:57;101309.00;;;10.00
63113;BMP280;49206;48.020;21.378;2022-10-16T02:19:00;101316.16;;;10.00
63113;BMP280;49206;48.020;21.378;2022-10-16T02:20:03;101313.63;;;9.95
63113;BMP280;49206;48.020;21.378;2022-10-16T02:21:31;101327.31;;;9.97
63113;BMP280;49206;48.020;21.378;2022-10-16T02:22:40;101318.31;;;9.98
63113;BMP280;49206;48.020;21.378;2022-10-16T02:23:51;101328.72;;;9.94
63113;BMP280;49206;48.020;21.378;2022-10-16T02:25:06;101324.97;;;9.95
63113;BMP280;49206;48.020;21.378;2022-10-16T02:26:13;101331.81;;;9.96
63113;BMP280;49206;48.020;21.378;2022-10-16T02:28:42;101328.97;;;9.84
63113;BMP280;49206;48.020;21.378;2022-10-16T02:30:09;101328.97;;;9.84
63113;BMP280;49206;48.020;21.378;2022-10-16T02:31:16;101332.41;;;9.85
63113;BMP280;49206;48.020;21.378;2022-10-16T02:32:23;101325.34;;;9.80
63113;BMP280;49206;48.020;21.378;2022-10-16T02:33:27;101328.28;;;9.79
63113;BMP280;49206;48.020;21.378;2022-10-16T02:34:32;101328.59;;;9.77
63113;BMP280;49206;48.020;21.378;2022-10-16T02:35:35;101321.78;;;9.76
63113;BMP280;49206;48.020;21.378;2022-10-16T02:36:39;101321.47;;;9.78
63113;BMP280;49206;48.020;21.378;2022-10-16T02:37:43;101323.16;;;9.74
63113;BMP280;49206;48.020;21.378;2022-10-16T02:38:46;101331.69;;;9.71
63113;BMP280;49206;48.020;21.378;2022-10-16T02:39:49;101327.88;;;9.63
63113;BMP280;49206;48.020;21.378;2022-10-16T02:40:51;101318.41;;;9.62
63113;BMP280;49206;48.020;21.378;2022-10-16T02:41:54;101320.78;;;9.64
63113;BMP280;49206;48.020;21.378;2022-10-16T02:42:56;101316.44;;;9.59
63113;BMP280;49206;48.020;21.378;2022-10-16T02:43:59;101313.44;;;9.61
63113;BMP280;49206;48.020;21.378;2022-10-16T02:45:02;101313.28;;;9.57
63113;BMP280;49206;48.020;21.378;2022-10-16T02:46:04;101317.00;;;9.56
63113;BMP280;49206;48.020;21.378;2022-10-16T02:47:07;101316.03;;;9.52
63113;BMP280;49206;48.020;21.378;2022-10-16T02:48:10;101312.94;;;9.50
63113;BMP280;49206;48.020;21.378;2022-10-16T02:49:12;101311.38;;;9.49
63113;BMP280;49206;48.020;21.378;2022-10-16T02:50:15;101313.66;;;9.42
63113;BMP280;49206;48.020;21.378;2022-10-16T02:51:17;101312.41;;;9.40
63113;BMP280;49206;48.020;21.378;2022-10-16T02:52:19;101315.03;;;9.40
63113;BMP280;49206;48.020;21.378;2022-10-16T02:53:22;101313.47;;;9.39
63113;BMP280;49206;48.020;21.378;2022-10-16T02:54:24;101314.34;;;9.34
63113;BMP280;49206;48.020;21.378;2022-10-16T02:55:26;101315.63;;;9.37
63113;BMP280;49206;48.020;21.378;2022-10-16T02:56:30;101322.25;;;9.34
63113;BMP280;49206;48.020;21.378;2022-10-16T02:57:32;101321.19;;;9.35
63113;BMP280;49206;48.020;21.378;2022-10-16T02:58:35;101325.22;;;9.33
63113;BMP280;49206;48.020;21.378;2022-10-16T02:59:37;101324.03;;;9.25
63113;BMP280;49206;48.020;21.378;2022-10-16T03:00:39;101324.66;;;9.22
63113;BMP280;49206;48.020;21.378;2022-10-16T03:01:42;101321.72;;;9.24
63113;BMP280;49206;48.020;21.378;2022-10-16T03:02:44;101325.72;;;9.21
63113;BMP280;49206;48.020;21.378;2022-10-16T03:03:47;101328.88;;;9.23
63113;BMP280;49206;48.020;21.378;2022-10-16T03:04:49;101327.28;;;9.22
63113;BMP280;49206;48.020;21.378;2022-10-16T03:05:51;101330.53;;;9.19
63113;BMP280;49206;48.020;21.378;2022-10-16T03:06:53;101335.19;;;9.22
63113;BMP280;49206;48.020;21.378;2022-10-16T03:07:56;101329.06;;;9.13
63113;BMP280;49206;48.020;21.378;2022-10-16T03:08:58;101329.81;;;9.05
63113;BMP280;49206;48.020;21.378;2022-10-16T03:10:00;101334.66;;;9.12
63113;BMP280;49206;48.020;21.378;2022-10-16T03:11:03;101325.59;;;9.04
63113;BMP280;49206;48.020;21.378;2022-10-16T03:12:05;101336.31;;;9.08
63113;BMP280;49206;48.020;21.378;2022-10-16T03:13:08;101331.03;;;9.08
63113;BMP280;49206;48.020;21.378;2022-10-16T03:14:10;101328.13;;;9.09
63113;BMP280;49206;48.020;21.378;2022-10-16T03:15:12;101333.38;;;9.09
63113;BMP280;49206;48.020;21.378;2022-10-16T03:16:15;101332.59;;;9.09
63113;BMP280;49206;48.020;21.378;2022-10-16T03:17:17;101329.38;;;8.98
63113;BMP280;49206;48.020;21.378;2022-10-16T03:18:19;101331.69;;;8.91
63113;BMP280;49206;48.020;21.378;2022-10-16T03:19:22;101330.03;;;8.95
63113;BMP280;49206;48.020;21.378;2022-10-16T03:20:25;101327.56;;;8.99
63113;BMP280;49206;48.020;21.378;2022-10-16T03:21:27;101333.72;;;8.94
63113;BMP280;49206;48.020;21.378;2022-10-16T03:22:29;101330.47;;;8.97
63113;BMP280;49206;48.020;21.378;2022-10-16T03:23:31;101335.75;;;8.97
63113;BMP280;49206;48.020;21.378;2022-10-16T03:24:34;101332.34;;;8.97
63113;BMP280;49206;48.020;21.378;2022-10-16T03:25:36;101332.66;;;8.95
63113;BMP280;49206;48.020;21.378;2022-10-16T03:26:38;101339.25;;;8.93
63113;BMP280;49206;48.020;21.378;2022-10-16T03:27:41;101332.72;;;8.90
63113;BMP280;49206;48.020;21.378;2022-10-16T03:28:43;101339.06;;;8.89
63113;BMP280;49206;48.020;21.378;2022-10-16T03:29:45;101339.38;;;8.88
63113;BMP280;49206;48.020;21.378;2022-10-16T03:30:48;101339.88;;;8.90
63113;BMP280;49206;48.020;21.378;2022-10-16T03:31:50;101344.53;;;8.93
63113;BMP280;49206;48.020;21.378;2022-10-16T03:32:52;101346.88;;;8.94
63113;BMP280;49206;48.020;21.378;2022-10-16T03:33:56;101346.88;;;8.94
63113;BMP280;49206;48.020;21.378;2022-10-16T03:34:58;101348.75;;;8.94
63113;BMP280;49206;48.020;21.378;2022-10-16T03:36:00;101353.22;;;8.93
63113;BMP280;49206;48.020;21.378;2022-10-16T03:37:03;101361.94;;;8.94
63113;BMP280;49206;48.020;21.378;2022-10-16T03:38:05;101351.78;;;8.87
63113;BMP280;49206;48.020;21.378;2022-10-16T03:39:08;101347.59;;;8.86
63113;BMP280;49206;48.020;21.378;2022-10-16T03:40:10;101348.06;;;8.88
63113;BMP280;49206;48.020;21.378;2022-10-16T03:41:12;101350.53;;;8.85
63113;BMP280;49206;48.020;21.378;2022-10-16T03:42:15;101356.06;;;8.83
63113;BMP280;49206;48.020;21.378;2022-10-16T03:43:17;101354.72;;;8.86
63113;BMP280;49206;48.020;21.378;2022-10-16T03:44:19;101359.38;;;8.89
63113;BMP280;49206;48.020;21.378;2022-10-16T03:45:21;101361.63;;;8.82
63113;BMP280;49206;48.020;21.378;2022-10-16T03:46:24;101355.50;;;8.86
63113;BMP280;49206;48.020;21.378;2022-10-16T03:47:26;101352.88;;;8.86
63113;BMP280;49206;48.020;21.378;2022-10-16T03:48:29;101355.50;;;8.86
63113;BMP280;49206;48.020;21.378;2022-10-16T03:49:31;101356.28;;;8.87
63113;BMP280;49206;48.020;21.378;2022-10-16T03:50:34;101355.50;;;8.86
63113;BMP280;49206;48.020;21.378;2022-10-16T03:51:36;101358.91;;;8.87
63113;BMP280;49206;48.020;21.378;2022-10-16T03:52:39;101360.28;;;8.84
63113;BMP280;49206;48.020;21.378;2022-10-16T03:53:41;101358.16;;;8.86
63113;BMP280;49206;48.020;21.378;2022-10-16T03:54:43;101362.78;;;8.89
63113;BMP280;49206;48.020;21.378;2022-10-16T03:55:46;101363.56;;;8.90
63113;BMP280;49206;48.020;21.378;2022-10-16T03:56:48;101360.56;;;8.96
63113;BMP280;49206;48.020;21.378;2022-10-16T03:57:50;101366.78;;;9.00
63113;BMP280;49206;48.020;21.378;2022-10-16T03:58:52;101362.00;;;9.02
63113;BMP280;49206;48.020;21.378;2022-10-16T03:59:55;101361.53;;;9.00
63113;BMP280;49206;48.020;21.378;2022-10-16T04:00:57;101367.56;;;9.01
63113;BMP280;49206;48.020;21.378;2022-10-16T04:01:59;101358.88;;;9.00
63113;BMP280;49206;48.020;21.378;2022-10-16T04:03:02;101366.78;;;9.00
63113;BMP280;49206;48.020;21.378;2022-10-16T04:04:04;101366.28;;;8.98
63113;BMP280;49206;48.020;21.378;2022-10-16T04:05:06;101363.66;;;8.98
63113;BMP280;49206;48.020;21.378;2022-10-16T04:06:09;101361.53;;;9.00
63113;BMP280;49206;48.020;21.378;2022-10-16T04:07:11;101358.28;;;9.03
63113;BMP280;49206;48.020;21.378;2022-10-16T04:08:14;101365.91;;;9.05
63113;BMP280;49206;48.020;21.378;2022-10-16T04:09:16;101370.69;;;9.03
63113;BMP280;49206;48.020;21.378;2022-10-16T04:10:18;101358.28;;;9.03
63113;BMP280;49206;48.020;21.378;2022-10-16T04:11:21;101367.75;;;9.04
63113;BMP280;49206;48.020;21.378;2022-10-16T04:12:23;101361.53;;;9.00
63113;BMP280;49206;48.020;21.378;2022-10-16T04:13:25;101359.94;;;8.99
63113;BMP280;49206;48.020;21.378;2022-10-16T04:14:28;101362.09;;;8.97
63113;BMP280;49206;48.020;21.378;2022-10-16T04:15:30;101360.72;;;9.00
63113;BMP280;49206;48.020;21.378;2022-10-16T04:16:32;101362.88;;;8.98
63113;BMP280;49206;48.020;21.378;2022-10-16T04:17:35;101356.81;;;8.97
63113;BMP280;49206;48.020;21.378;2022-10-16T04:18:38;101361.31;;;8.97
63113;BMP280;49206;48.020;21.378;2022-10-16T04:19:40;101361.94;;;8.94
63113;BMP280;49206;48.020;21.378;2022-10-16T04:20:42;101360.56;;;8.96
63113;BMP280;49206;48.020;21.378;2022-10-16T04:21:45;101360.84;;;8.95
63113;BMP280;49206;48.020;21.378;2022-10-16T04:22:47;101363.75;;;8.93
63113;BMP280;49206;48.020;21.378;2022-10-16T04:23:49;101364.97;;;8.87
63113;BMP280;49206;48.020;21.378;2022-10-16T04:24:52;101362.91;;;8.84
63113;BMP280;49206;48.020;21.378;2022-10-16T04:25:54;101362.72;;;8.81
63113;BMP280;49206;48.020;21.378;2022-10-16T04:26:57;101368.25;;;8.79
63113;BMP280;49206;48.020;21.378;2022-10-16T04:27:59;101368.25;;;8.79
63113;BMP280;49206;48.020;21.378;2022-10-16T04:29:01;101365.94;;;8.78
63113;BMP280;49206;48.020;21.378;2022-10-16T04:30:04;101370.72;;;8.76
63113;BMP280;49206;48.020;21.378;2022-10-16T04:31:07;101371.56;;;8.71
63113;BMP280;49206;48.020;21.378;2022-10-16T04:32:09;101369.06;;;8.66
63113;BMP280;49206;48.020;21.378;2022-10-16T04:33:12;101373.84;;;8.64
63113;BMP280;49206;48.020;21.378;2022-10-16T04:34:15;101366.50;;;8.61
63113;BMP280;49206;48.020;21.378;2022-10-16T04:35:18;101373.13;;;8.59
63113;BMP280;49206;48.020;21.378;2022-10-16T04:36:20;101364.28;;;8.55
63113;BMP280;49206;48.020;21.378;2022-10-16T04:37:28;101369.81;;;8.53
63113;BMP280;49206;48.020;21.378;2022-10-16T04:38:30;101365.34;;;8.54
63113;BMP280;49206;48.020;21.378;2022-10-16T04:39:33;101371.69;;;8.53
63113;BMP280;49206;48.020;21.378;2022-10-16T04:40:35;101376.69;;;8.54
63113;BMP280;49206;48.020;21.378;2022-10-16T04:41:38;101370.41;;;8.50
63113;BMP280;49206;48.020;21.378;2022-10-16T04:42:41;101367.78;;;8.50
63113;BMP280;49206;48.020;21.378;2022-10-16T04:43:43;101367.59;;;8.47
63113;BMP280;49206;48.020;21.378;2022-10-16T04:44:46;101370.53;;;8.45
63113;BMP280;49206;48.020;21.378;2022-10-16T04:45:51;101373.44;;;8.44
63113;BMP280;49206;48.020;21.378;2022-10-16T04:46:54;101373.44;;;8.44
63113;BMP280;49206;48.020;21.378;2022-10-16T04:47:57;101373.44;;;8.44
63113;BMP280;49206;48.020;21.378;2022-10-16T04:49:00;101377.91;;;8.43
63113;BMP280;49206;48.020;21.378;2022-10-16T04:50:03;101377.72;;;8.40
63113;BMP280;49206;48.020;21.378;2022-10-16T04:51:05;101382.97;;;8.40
63113;BMP280;49206;48.020;21.378;2022-10-16T04:52:07;101389.91;;;8.36
63113;BMP280;49206;48.020;21.378;2022-10-16T04:53:11;101381.53;;;8.34
63113;BMP280;49206;48.020;21.378;2022-10-16T04:54:14;101385.09;;;8.24
63113;BMP280;49206;48.020;21.378;2022-10-16T04:55:16;101378.66;;;8.30
63113;BMP280;49206;48.020;21.378;2022-10-16T04:56:19;101384.53;;;8.27
63113;BMP280;49206;48.020;21.378;2022-10-16T04:57:22;101384.81;;;8.26
63113;BMP280;49206;48.020;21.378;2022-10-16T04:58:25;101389.38;;;8.20
63113;BMP280;49206;48.020;21.378;2022-10-16T04:59:27;101388.56;;;8.20
63113;BMP280;49206;48.020;21.378;2022-10-16T05:00:30;101385.28;;;8.15
63113;BMP280;49206;48.020;21.378;2022-10-16T05:01:32;101393.00;;;8.24
63113;BMP280;49206;48.020;21.378;2022-10-16T05:02:34;101386.66;;;8.25
63113;BMP280;49206;48.020;21.378;2022-10-16T05:03:36;101389.81;;;8.27
63113;BMP280;49206;48.020;21.378;2022-10-16T05:04:39;101389.50;;;8.29
63113;BMP280;49206;48.020;21.378;2022-10-16T05:05:44;101403.94;;;8.31
63113;BMP280;49206;48.020;21.378;2022-10-16T05:06:49;101396.81;;;8.32
63113;BMP280;49206;48.020;21.378;2022-10-16T05:07:51;101399.16;;;8.33
63113;BMP280;49206;48.020;21.378;2022-10-16T05:08:53;101399.63;;;8.35
63113;BMP280;49206;48.020;21.378;2022-10-16T05:09:55;101402.78;;;8.37
63113;BMP280;49206;48.020;21.378;2022-10-16T05:10:58;101406.19;;;8.38
63113;BMP280;49206;48.020;21.378;2022-10-16T05:12:00;101404.34;;;8.38
63113;BMP280;49206;48.020;21.378;2022-10-16T05:13:03;101408.59;;;8.34
63113;BMP280;49206;48.020;21.378;2022-10-16T05:14:05;101410.16;;;8.35
63113;BMP280;49206;48.020;21.378;2022-10-16T05:15:08;101413.59;;;8.36
63113;BMP280;49206;48.020;21.378;2022-10-16T05:16:11;101411.81;;;8.31
63113;BMP280;49206;48.020;21.378;2022-10-16T05:17:13;101418.56;;;8.37
63113;BMP280;49206;48.020;21.378;2022-10-16T05:18:16;101413.31;;;8.37
63113;BMP280;49206;48.020;21.378;2022-10-16T05:19:20;101421.00;;;8.34
63113;BMP280;49206;48.020;21.378;2022-10-16T05:20:30;101418.84;;;8.36
63113;BMP280;49206;48.020;21.378;2022-10-16T05:21:32;101416.41;;;8.39
63113;BMP280;49206;48.020;21.378;2022-10-16T05:22:34;101426.09;;;8.44
63113;BMP280;49206;48.020;21.378;2022-10-16T05:23:37;101424.44;;;8.48
63113;BMP280;49206;48.020;21.378;2022-10-16T05:24:39;101428.53;;;8.54
63113;BMP280;49206;48.020;21.378;2022-10-16T05:25:42;101425.91;;;8.54
63113;BMP280;49206;48.020;21.378;2022-10-16T05:26:44;101429.81;;;8.56
63113;BMP280;49206;48.020;21.378;2022-10-16T05:27:48;101434.50;;;8.59
63113;BMP280;49206;48.020;21.378;2022-10-16T05:28:50;101426.41;;;8.69
63113;BMP280;49206;48.020;21.378;2022-10-16T05:29:53;101427.75;;;8.80
63113;BMP280;49206;48.020;21.378;2022-10-16T05:30:56;101427.59;;;8.77
63113;BMP280;49206;48.020;21.378;2022-10-16T05:31:58;101436.94;;;8.83
63113;BMP280;49206;48.020;21.378;2022-10-16T05:33:01;101438.22;;;8.99
63113;BMP280;49206;48.020;21.378;2022-10-16T05:34:03;101437.69;;;9.37
63113;BMP280;49206;48.020;21.378;2022-10-16T05:35:05;101446.19;;;9.92
63113;BMP280;49206;48.020;21.378;2022-10-16T05:36:13;101439.88;;;10.54
63113;BMP280;49206;48.020;21.378;2022-10-16T05:37:15;101443.03;;;11.45
63113;BMP280;49206;48.020;21.378;2022-10-16T05:38:18;101431.84;;;12.57
63113;BMP280;49206;48.020;21.378;2022-10-16T05:39:21;101441.59;;;13.55
63113;BMP280;49206;48.020;21.378;2022-10-16T05:40:24;101436.53;;;13.62
63113;BMP280;49206;48.020;21.378;2022-10-16T05:41:26;101439.66;;;13.76
63113;BMP280;49206;48.020;21.378;2022-10-16T05:42:29;101433.03;;;13.82
63113;BMP280;49206;48.020;21.378;2022-10-16T05:43:32;101438.84;;;14.08
63113;BMP280;49206;48.020;21.378;2022-10-16T05:44:34;101444.50;;;14.43
63113;BMP280;49206;48.020;21.378;2022-10-16T05:45:37;101442.63;;;14.55
63113;BMP280;49206;48.020;21.378;2022-10-16T05:46:39;101447.72;;;14.36
63113;BMP280;49206;48.020;21.378;2022-10-16T05:47:41;101454.22;;;14.03
63113;BMP280;49206;48.020;21.378;2022-10-16T05:48:44;101452.22;;;13.55
63113;BMP280;49206;48.020;21.378;2022-10-16T05:49:47;101453.22;;;13.10
63113;BMP280;49206;48.020;21.378;2022-10-16T05:50:56;101447.78;;;12.49
63113;BMP280;49206;48.020;21.378;2022-10-16T05:51:59;101462.00;;;11.81
63113;BMP280;49206;48.020;21.378;2022-10-16T05:53:01;101460.28;;;11.51
63113;BMP280;49206;48.020;21.378;2022-10-16T05:54:04;101466.16;;;11.23
63113;BMP280;49206;48.020;21.378;2022-10-16T05:55:07;101465.84;;;11.16
63113;BMP280;49206;48.020;21.378;2022-10-16T05:56:11;101460.53;;;11.07
63113;BMP280;49206;48.020;21.378;2022-10-16T05:57:14;101470.56;;;11.19
63113;BMP280;49206;48.020;21.378;2022-10-16T05:58:17;101470.81;;;11.09
63113;BMP280;49206;48.020;21.378;2022-10-16T05:59:19;101475.28;;;10.91
63113;BMP280;49206;48.020;21.378;2022-10-16T06:00:21;101474.34;;;10.88
63113;BMP280;49206;48.020;21.378;2022-10-16T06:01:23;101479.75;;;10.91
63113;BMP280;49206;48.020;21.378;2022-10-16T06:02:26;101482.78;;;11.06
63113;BMP280;49206;48.020;21.378;2022-10-16T06:03:29;101473.50;;;11.34
63113;BMP280;49206;48.020;21.378;2022-10-16T06:04:31;101475.69;;;11.66
63113;BMP280;49206;48.020;21.378;2022-10-16T06:05:33;101475.28;;;12.73
63113;BMP280;49206;48.020;21.378;2022-10-16T06:06:35;101480.47;;;14.04
63113;BMP280;49206;48.020;21.378;2022-10-16T06:07:38;101473.59;;;14.99
63113;BMP280;49206;48.020;21.378;2022-10-16T06:08:42;101479.94;;;15.34
63113;BMP280;49206;48.020;21.378;2022-10-16T06:09:52;101490.97;;;16.37